HISTORICAL SENSOR DATA

Sensor Data Report

DB LIVE
CURRENT TIME--:--:--
DEVICE NETWORK Gateway Status
13 ESP · realtime ~1s · history 60s
Weather WS-MOD-01
ONLINE
Actuator ACT-MOD-01
OFFLINE
Mainboard L3 MB-L3-01
ONLINE
Mainboard L5 MB-L5-01
ONLINE
Remote AC AC-REMOTE-01
ONLINE
PZEM L3-01 PWR-L3-01
OFFLINE
PZEM L3-02 PWR-L3-02
OFFLINE
PZEM L3-03 PWR-L3-03
OFFLINE
PZEM L3-04 PWR-L3-04
OFFLINE
PZEM L5-01 PWR-L5-01
ONLINE
PZEM L5-02 PWR-L5-02
ONLINE
PZEM L5-03 PWR-L5-03
OFFLINE
PZEM L5-04 PWR-L5-04
OFFLINE
REPORT FILTER

Periode & Sensor

DATABASE HISTORY
RESET
QUICK RANGE Hari ini 7 hari 30 hari
PERIODE08 Aug 2026sampai 06 Sep 2026
TOTAL DATA67,817sensor readings
MINIMUM-0.50sesuai filter
AVERAGE84.86sesuai filter
MAXIMUM32,564.20sesuai filter
REPORT RESULT

Data Sensor

08/08/2026 — 06/09/2026 EXPORT CSV
NOTANGGALWAKTUDEVICECHANNELSENSORVALUEUNIT
501 06/09/2026 23:52:00 PWR-L5-02Power Meter L5 PZEM 02 PZEM-L5-02-FREQ PZEM L5-02 Frequency 50.00 Hz
502 06/09/2026 23:52:00 MB-L3-01Mainboard Lantai 3 L3-RAD-01 Radiation 1 1.00 W/m²
503 06/09/2026 23:52:00 PWR-L5-01Power Meter L5 PZEM 01 PZEM-L5-01-ENERGY PZEM L5-01 Energy 0.06 kWh
504 06/09/2026 23:52:00 MB-L5-01Mainboard Lantai 5 L5-BGT-02 Black Globe Temperature 2 26.80 °C
505 06/09/2026 23:52:00 PWR-L5-02Power Meter L5 PZEM 02 PZEM-L5-02-VOLT PZEM L5-02 Voltage 224.60 V
506 06/09/2026 23:52:00 MB-L5-01Mainboard Lantai 5 L5-AI-06 Analog Input 6 3.05 V
507 06/09/2026 23:52:00 AC-REMOTE-01Remote AC AC-POWER AC Power State 1.00 state
508 06/09/2026 23:52:00 MB-L3-01Mainboard Lantai 3 L3-AI-04 Analog Input 4 3.12 V
509 06/09/2026 23:52:00 MB-L3-01Mainboard Lantai 3 L3-LUX-05 Illuminance / LUX 5 0.30 lux
510 06/09/2026 23:52:00 MB-L5-01Mainboard Lantai 5 L5-RAD-02 Radiation 2 1.00 W/m²
511 06/09/2026 23:52:00 MB-L5-01Mainboard Lantai 5 L5-HFT-01 Heat Flow Temperature 1 23.90 °C
512 06/09/2026 23:52:00 MB-L5-01Mainboard Lantai 5 L5-LUX-04 Illuminance / LUX 4 0.10 lux
513 06/09/2026 23:52:00 WS-MOD-01Weather Station Module WS-RH Kelembapan Udara 77.50 %RH
514 06/09/2026 23:52:00 MB-L5-01Mainboard Lantai 5 L5-RAD-01 Radiation 1 1.00 W/m²
515 06/09/2026 23:52:00 MB-L5-01Mainboard Lantai 5 L5-AI-01 Analog Input 1 3.05 V
516 06/09/2026 23:52:00 MB-L5-01Mainboard Lantai 5 L5-LUX-02 Illuminance / LUX 2 0.10 lux
517 06/09/2026 23:52:00 PWR-L5-01Power Meter L5 PZEM 01 PZEM-L5-01-FREQ PZEM L5-01 Frequency 50.00 Hz
518 06/09/2026 23:52:00 PWR-L5-02Power Meter L5 PZEM 02 PZEM-L5-02-ENERGY PZEM L5-02 Energy 0.04 kWh
519 06/09/2026 23:52:00 MB-L3-01Mainboard Lantai 3 L3-LUX-01 Illuminance / LUX 1 0.20 lux
520 06/09/2026 23:52:00 MB-L5-01Mainboard Lantai 5 L5-LUX-06 Illuminance / LUX 6 0.10 lux
521 06/09/2026 23:52:00 MB-L3-01Mainboard Lantai 3 L3-AI-02 Analog Input 2 3.12 V
522 06/09/2026 23:52:00 MB-L5-01Mainboard Lantai 5 L5-AI-04 Analog Input 4 3.05 V
523 06/09/2026 23:52:00 MB-L3-01Mainboard Lantai 3 L3-SHT-01-RH SHT20 1 Humidity 45.70 %RH
524 06/09/2026 23:52:00 MB-L3-01Mainboard Lantai 3 L3-LUX-03 Illuminance / LUX 3 0.20 lux
525 06/09/2026 23:52:00 PWR-L5-01Power Meter L5 PZEM 01 PZEM-L5-01-PF PZEM L5-01 Power Factor 0.39
526 06/09/2026 23:52:00 MB-L3-01Mainboard Lantai 3 L3-SHT-03-T SHT20 3 Temperature 29.00 °C
527 06/09/2026 23:52:00 WS-MOD-01Weather Station Module WS-TEMP Suhu Udara 19.70 °C
528 06/09/2026 23:52:00 AC-REMOTE-01Remote AC AC-FAN AC Fan Speed 0.00 code
529 06/09/2026 23:52:00 MB-L5-01Mainboard Lantai 5 L5-BGT-03 Black Globe Temperature 3 26.50 °C
530 06/09/2026 23:52:00 MB-L5-01Mainboard Lantai 5 L5-ST-01 Surface Temperature 1 24.00 °C
531 06/09/2026 23:52:00 MB-L5-01Mainboard Lantai 5 L5-LUX-01 Illuminance / LUX 1 0.00 lux
532 06/09/2026 23:52:00 WS-MOD-01Weather Station Module WS-DIR Arah Angin 89.40 °
533 06/09/2026 23:52:00 MB-L3-01Mainboard Lantai 3 L3-RAD-02 Radiation 2 0.00 W/m²
534 06/09/2026 23:52:00 MB-L3-01Mainboard Lantai 3 L3-AI-05 Analog Input 5 3.12 V
535 06/09/2026 23:52:00 MB-L5-01Mainboard Lantai 5 L5-HFT-02 Heat Flow Temperature 2 23.10 °C
536 06/09/2026 23:52:00 MB-L3-01Mainboard Lantai 3 L3-LUX-02 Illuminance / LUX 2 0.20 lux
537 06/09/2026 23:52:00 PWR-L5-02Power Meter L5 PZEM 02 PZEM-L5-02-POWER PZEM L5-02 Active Power 0.00 W
538 06/09/2026 23:52:00 MB-L5-01Mainboard Lantai 5 L5-AI-02 Analog Input 2 3.05 V
539 06/09/2026 23:52:00 PWR-L5-01Power Meter L5 PZEM 01 PZEM-L5-01-VOLT PZEM L5-01 Voltage 224.70 V
540 06/09/2026 23:51:00 WS-MOD-01Weather Station Module WS-PRES Tekanan Udara 912.00 hPa
541 06/09/2026 23:51:00 MB-L5-01Mainboard Lantai 5 L5-SHT-02-T SHT20 2 Temperature 29.10 °C
542 06/09/2026 23:51:00 MB-L3-01Mainboard Lantai 3 L3-LUX-04 Illuminance / LUX 4 0.10 lux
543 06/09/2026 23:51:00 AC-REMOTE-01Remote AC AC-SETPOINT AC Set Temperature 23.00 °C
544 06/09/2026 23:51:00 PWR-L5-01Power Meter L5 PZEM 01 PZEM-L5-01-POWER PZEM L5-01 Active Power 10.40 W
545 06/09/2026 23:51:00 MB-L3-01Mainboard Lantai 3 L3-AI-01 Analog Input 1 3.12 V
546 06/09/2026 23:51:00 MB-L5-01Mainboard Lantai 5 L5-SHT-03-RH SHT20 3 Humidity 45.50 %RH
547 06/09/2026 23:51:00 MB-L3-01Mainboard Lantai 3 L3-SHT-02-RH SHT20 2 Humidity 44.80 %RH
548 06/09/2026 23:51:00 MB-L5-01Mainboard Lantai 5 L5-SHT-01-T SHT20 1 Temperature 28.80 °C
549 06/09/2026 23:51:00 MB-L3-01Mainboard Lantai 3 L3-SHT-03-RH SHT20 3 Humidity 45.10 %RH
550 06/09/2026 23:51:00 MB-L5-01Mainboard Lantai 5 L5-LUX-03 Illuminance / LUX 3 0.10 lux
551 06/09/2026 23:51:00 MB-L5-01Mainboard Lantai 5 L5-SHT-03-T SHT20 3 Temperature 29.00 °C
552 06/09/2026 23:51:00 MB-L3-01Mainboard Lantai 3 L3-AI-06 Analog Input 6 3.12 V
553 06/09/2026 23:51:00 MB-L5-01Mainboard Lantai 5 L5-AI-03 Analog Input 3 3.05 V
554 06/09/2026 23:51:00 MB-L5-01Mainboard Lantai 5 L5-SHT-02-RH SHT20 2 Humidity 45.10 %RH
555 06/09/2026 23:51:00 PWR-L5-02Power Meter L5 PZEM 02 PZEM-L5-02-FREQ PZEM L5-02 Frequency 49.90 Hz
556 06/09/2026 23:51:00 MB-L3-01Mainboard Lantai 3 L3-RAD-01 Radiation 1 1.00 W/m²
557 06/09/2026 23:51:00 PWR-L5-01Power Meter L5 PZEM 01 PZEM-L5-01-ENERGY PZEM L5-01 Energy 0.06 kWh
558 06/09/2026 23:51:00 MB-L5-01Mainboard Lantai 5 L5-BGT-02 Black Globe Temperature 2 26.70 °C
559 06/09/2026 23:51:00 PWR-L5-02Power Meter L5 PZEM 02 PZEM-L5-02-VOLT PZEM L5-02 Voltage 224.40 V
560 06/09/2026 23:51:00 MB-L5-01Mainboard Lantai 5 L5-AI-06 Analog Input 6 3.05 V
561 06/09/2026 23:51:00 AC-REMOTE-01Remote AC AC-POWER AC Power State 1.00 state
562 06/09/2026 23:51:00 MB-L3-01Mainboard Lantai 3 L3-AI-04 Analog Input 4 3.12 V
563 06/09/2026 23:51:00 MB-L3-01Mainboard Lantai 3 L3-LUX-05 Illuminance / LUX 5 0.30 lux
564 06/09/2026 23:51:00 MB-L5-01Mainboard Lantai 5 L5-RAD-02 Radiation 2 1.00 W/m²
565 06/09/2026 23:51:00 MB-L5-01Mainboard Lantai 5 L5-HFT-01 Heat Flow Temperature 1 23.90 °C
566 06/09/2026 23:51:00 MB-L5-01Mainboard Lantai 5 L5-LUX-04 Illuminance / LUX 4 0.10 lux
567 06/09/2026 23:51:00 WS-MOD-01Weather Station Module WS-RH Kelembapan Udara 77.50 %RH
568 06/09/2026 23:51:00 MB-L5-01Mainboard Lantai 5 L5-RAD-01 Radiation 1 1.00 W/m²
569 06/09/2026 23:51:00 MB-L5-01Mainboard Lantai 5 L5-AI-01 Analog Input 1 3.05 V
570 06/09/2026 23:51:00 MB-L5-01Mainboard Lantai 5 L5-LUX-02 Illuminance / LUX 2 0.10 lux
571 06/09/2026 23:51:00 PWR-L5-01Power Meter L5 PZEM 01 PZEM-L5-01-FREQ PZEM L5-01 Frequency 50.00 Hz
572 06/09/2026 23:51:00 PWR-L5-02Power Meter L5 PZEM 02 PZEM-L5-02-ENERGY PZEM L5-02 Energy 0.04 kWh
573 06/09/2026 23:51:00 MB-L3-01Mainboard Lantai 3 L3-LUX-01 Illuminance / LUX 1 0.20 lux
574 06/09/2026 23:51:00 MB-L5-01Mainboard Lantai 5 L5-LUX-06 Illuminance / LUX 6 0.10 lux
575 06/09/2026 23:51:00 MB-L3-01Mainboard Lantai 3 L3-AI-02 Analog Input 2 3.12 V
576 06/09/2026 23:51:00 MB-L5-01Mainboard Lantai 5 L5-AI-04 Analog Input 4 3.05 V
577 06/09/2026 23:51:00 MB-L3-01Mainboard Lantai 3 L3-SHT-01-RH SHT20 1 Humidity 45.50 %RH
578 06/09/2026 23:51:00 MB-L3-01Mainboard Lantai 3 L3-LUX-03 Illuminance / LUX 3 0.20 lux
579 06/09/2026 23:51:00 PWR-L5-01Power Meter L5 PZEM 01 PZEM-L5-01-PF PZEM L5-01 Power Factor 0.38
580 06/09/2026 23:51:00 MB-L3-01Mainboard Lantai 3 L3-SHT-03-T SHT20 3 Temperature 29.00 °C
581 06/09/2026 23:51:00 WS-MOD-01Weather Station Module WS-TEMP Suhu Udara 19.70 °C
582 06/09/2026 23:51:00 AC-REMOTE-01Remote AC AC-FAN AC Fan Speed 0.00 code
583 06/09/2026 23:51:00 MB-L5-01Mainboard Lantai 5 L5-BGT-03 Black Globe Temperature 3 26.50 °C
584 06/09/2026 23:51:00 MB-L5-01Mainboard Lantai 5 L5-ST-01 Surface Temperature 1 24.10 °C
585 06/09/2026 23:51:00 MB-L5-01Mainboard Lantai 5 L5-LUX-01 Illuminance / LUX 1 0.00 lux
586 06/09/2026 23:51:00 WS-MOD-01Weather Station Module WS-DIR Arah Angin 67.40 °
587 06/09/2026 23:51:00 MB-L3-01Mainboard Lantai 3 L3-RAD-02 Radiation 2 1.00 W/m²
588 06/09/2026 23:51:00 MB-L3-01Mainboard Lantai 3 L3-AI-05 Analog Input 5 3.12 V
589 06/09/2026 23:51:00 MB-L5-01Mainboard Lantai 5 L5-HFT-02 Heat Flow Temperature 2 23.10 °C
590 06/09/2026 23:51:00 MB-L3-01Mainboard Lantai 3 L3-LUX-02 Illuminance / LUX 2 0.20 lux
591 06/09/2026 23:51:00 PWR-L5-02Power Meter L5 PZEM 02 PZEM-L5-02-POWER PZEM L5-02 Active Power 0.00 W
592 06/09/2026 23:51:00 MB-L5-01Mainboard Lantai 5 L5-AI-02 Analog Input 2 3.05 V
593 06/09/2026 23:51:00 PWR-L5-01Power Meter L5 PZEM 01 PZEM-L5-01-VOLT PZEM L5-01 Voltage 224.40 V
594 06/09/2026 23:51:00 AC-REMOTE-01Remote AC AC-MODE AC Operating Mode 1.00 code
595 06/09/2026 23:51:00 MB-L3-01Mainboard Lantai 3 L3-SHT-01-T SHT20 1 Temperature 28.70 °C
596 06/09/2026 23:51:00 MB-L3-01Mainboard Lantai 3 L3-SHT-02-T SHT20 2 Temperature 28.90 °C
597 06/09/2026 23:51:00 PWR-L5-02Power Meter L5 PZEM 02 PZEM-L5-02-PF PZEM L5-02 Power Factor 0.00
598 06/09/2026 23:51:00 MB-L5-01Mainboard Lantai 5 L5-BGT-01 Black Globe Temperature 1 26.80 °C
599 06/09/2026 23:51:00 MB-L5-01Mainboard Lantai 5 L5-LUX-05 Illuminance / LUX 5 0.10 lux
600 06/09/2026 23:51:00 MB-L5-01Mainboard Lantai 5 L5-AI-05 Analog Input 5 3.05 V
Menampilkan maksimal 100 data per halaman